createdAt,value
2022-11-24T00:01:30.147Z,99.84
2022-11-24T00:04:04.412Z,99.92
2022-11-24T00:06:35.612Z,99.89
2022-11-24T00:09:04.931Z,99.80
2022-11-24T00:11:35.458Z,99.49
2022-11-24T00:14:04.780Z,99.54
2022-11-24T00:16:37.468Z,99.61
2022-11-24T00:19:14.569Z,99.57
2022-11-24T00:21:45.179Z,99.58
2022-11-24T00:24:13.293Z,99.63
2022-11-24T00:26:41.471Z,99.73
2022-11-24T00:29:11.092Z,99.69
2022-11-24T00:31:42.840Z,99.90
2022-11-24T00:34:13.501Z,99.83
2022-11-24T00:36:42.173Z,99.72
2022-11-24T00:39:15.146Z,99.73
2022-11-24T00:41:43.739Z,99.70
2022-11-24T00:44:11.697Z,99.69
2022-11-24T00:46:39.900Z,99.48
2022-11-24T00:49:08.274Z,99.40
2022-11-24T00:51:36.238Z,99.31
2022-11-24T00:54:04.110Z,99.09
2022-11-24T00:56:32.030Z,99.11
2022-11-24T00:59:00.450Z,99.03
2022-11-24T01:01:31.031Z,98.87
2022-11-24T01:04:03.245Z,98.88
2022-11-24T01:06:32.554Z,98.88
2022-11-24T01:09:00.728Z,98.91
2022-11-24T01:11:54.385Z,98.96
2022-11-24T01:14:24.828Z,99.18
2022-11-24T01:16:53.081Z,99.15
2022-11-24T01:19:21.431Z,99.07
2022-11-24T01:21:49.578Z,99.06
2022-11-24T01:24:17.967Z,99.12
2022-11-24T01:26:45.938Z,99.00
2022-11-24T01:29:13.898Z,99.09
2022-11-24T01:31:41.759Z,99.04
2022-11-24T01:34:09.737Z,98.93
2022-11-24T01:36:37.646Z,98.92
2022-11-24T01:39:06.158Z,98.90
2022-11-24T01:41:35.585Z,98.85
2022-11-24T01:44:25.831Z,98.80
2022-11-24T01:47:23.690Z,98.83
2022-11-24T01:49:55.980Z,98.81
2022-11-24T01:52:28.264Z,98.79
2022-11-24T01:55:02.863Z,98.87
2022-11-24T01:57:36.132Z,98.62
2022-11-24T02:00:10.177Z,98.39
2022-11-24T02:02:46.097Z,98.60
2022-11-24T02:05:52.333Z,98.47
2022-11-24T02:08:25.359Z,98.54
2022-11-24T02:10:54.899Z,98.55
2022-11-24T02:13:23.807Z,98.40
2022-11-24T02:15:54.250Z,98.40
2022-11-24T02:18:22.278Z,98.49
2022-11-24T02:20:50.147Z,98.51
2022-11-24T02:23:30.830Z,98.51
2022-11-24T02:26:20.598Z,98.38
2022-11-24T02:28:49.617Z,98.51
2022-11-24T02:31:18.064Z,98.41
2022-11-24T02:33:46.854Z,98.29
2022-11-24T02:36:14.767Z,98.23
2022-11-24T02:38:42.687Z,98.30
2022-11-24T02:41:14.945Z,98.34
2022-11-24T02:44:01.644Z,98.39
2022-11-24T02:46:29.644Z,98.32
2022-11-24T02:48:57.823Z,98.22
2022-11-24T02:51:25.713Z,97.80
2022-11-24T02:53:53.619Z,97.70
2022-11-24T02:56:21.626Z,97.55
2022-11-24T02:58:49.507Z,97.43
2022-11-24T03:01:17.400Z,97.57
2022-11-24T03:03:45.885Z,97.54
2022-11-24T03:06:13.907Z,97.52
2022-11-24T03:08:41.705Z,97.51
2022-11-24T03:11:12.305Z,97.43
2022-11-24T03:13:40.210Z,97.24
2022-11-24T03:16:11.432Z,97.18
2022-11-24T03:18:39.539Z,97.11
2022-11-24T03:21:07.532Z,97.13
2022-11-24T03:23:35.535Z,97.14
2022-11-24T03:26:15.592Z,97.11
2022-11-24T03:28:43.492Z,97.09
2022-11-24T03:31:12.153Z,97.12
2022-11-24T03:33:40.974Z,97.18
2022-11-24T03:36:09.514Z,97.15
2022-11-24T03:38:37.524Z,97.24
2022-11-24T03:41:05.679Z,97.38
2022-11-24T03:43:34.095Z,97.63
2022-11-24T03:46:05.987Z,97.86
2022-11-24T03:48:33.932Z,97.66
2022-11-24T03:51:03.195Z,97.55
2022-11-24T03:53:35.625Z,97.51
2022-11-24T03:56:04.797Z,97.58
2022-11-24T03:58:32.861Z,97.57
2022-11-24T04:01:00.801Z,97.47
2022-11-24T04:03:28.840Z,97.26
2022-11-24T04:05:56.847Z,97.17
2022-11-24T04:08:24.860Z,96.98
2022-11-24T04:10:55.927Z,96.87
2022-11-24T04:13:25.702Z,96.78
2022-11-24T04:15:53.745Z,96.85
2022-11-24T04:18:21.930Z,96.95
2022-11-24T04:20:50.909Z,96.95
2022-11-24T04:23:19.014Z,97.00
2022-11-24T04:25:46.842Z,96.96
2022-11-24T04:28:14.640Z,97.05
2022-11-24T04:30:44.711Z,97.03
2022-11-24T04:33:13.327Z,97.20
2022-11-24T04:35:41.282Z,97.32
2022-11-24T04:38:09.266Z,97.36
2022-11-24T04:40:38.176Z,97.32
2022-11-24T04:43:05.904Z,97.11
2022-11-24T04:45:33.650Z,97.16
2022-11-24T04:48:01.413Z,97.10
2022-11-24T04:50:29.172Z,97.22
2022-11-24T04:52:57.165Z,97.28
2022-11-24T04:55:24.946Z,97.26
2022-11-24T04:57:52.688Z,97.38
2022-11-24T05:00:21.484Z,97.45
2022-11-24T05:02:49.264Z,97.47
2022-11-24T05:05:17.172Z,97.68
2022-11-24T05:07:45.046Z,97.69
2022-11-24T05:10:31.371Z,97.80
2022-11-24T05:12:59.667Z,97.67
2022-11-24T05:15:27.826Z,97.72
2022-11-24T05:17:55.932Z,97.64
2022-11-24T05:20:24.670Z,97.73
2022-11-24T05:22:52.507Z,97.72
2022-11-24T05:25:20.599Z,97.77
2022-11-24T05:27:48.548Z,97.68
2022-11-24T05:30:16.518Z,97.82
2022-11-24T05:32:44.279Z,97.81
2022-11-24T05:35:12.142Z,97.48
2022-11-24T05:37:39.947Z,97.36
2022-11-24T05:40:08.364Z,97.22
2022-11-24T05:42:47.200Z,97.16
2022-11-24T05:45:18.717Z,97.02
2022-11-24T05:47:54.947Z,96.80
2022-11-24T05:50:23.661Z,96.79
2022-11-24T05:52:51.529Z,96.76
2022-11-24T05:55:19.655Z,96.65
2022-11-24T05:57:47.743Z,96.61
2022-11-24T06:00:18.209Z,96.46
2022-11-24T06:02:46.175Z,96.54
2022-11-24T06:05:14.225Z,96.70
2022-11-24T06:07:42.292Z,96.71
2022-11-24T06:10:13.437Z,96.62
2022-11-24T06:12:41.398Z,96.68
2022-11-24T06:15:09.778Z,96.51
2022-11-24T06:17:38.492Z,96.34
2022-11-24T06:20:11.044Z,96.14
2022-11-24T06:22:39.883Z,95.74
2022-11-24T06:25:09.677Z,95.75
2022-11-24T06:27:38.101Z,95.38
2022-11-24T06:30:06.712Z,95.37
2022-11-24T06:32:34.545Z,95.20
2022-11-24T06:35:02.548Z,95.13
2022-11-24T06:37:30.481Z,95.04
2022-11-24T06:39:58.415Z,95.40
2022-11-24T06:42:26.167Z,95.37
2022-11-24T06:44:53.922Z,95.48
2022-11-24T06:47:21.820Z,95.45
2022-11-24T06:49:49.554Z,95.51
2022-11-24T06:52:17.317Z,95.43
2022-11-24T06:54:45.190Z,95.38
2022-11-24T06:57:12.953Z,95.56
2022-11-24T06:59:40.748Z,95.60
2022-11-24T07:02:14.793Z,95.79
2022-11-24T07:04:45.661Z,96.03
2022-11-24T07:07:13.639Z,96.24
2022-11-24T07:09:41.586Z,96.27
2022-11-24T07:12:09.454Z,96.34
2022-11-24T07:14:39.786Z,96.57
2022-11-24T07:17:07.544Z,96.53
2022-11-24T07:19:35.473Z,96.73
2022-11-24T07:22:03.216Z,96.76
2022-11-24T07:24:30.990Z,96.81
2022-11-24T07:26:58.804Z,96.82
2022-11-24T07:29:26.637Z,96.87
2022-11-24T07:31:54.473Z,97.13
2022-11-24T07:34:22.520Z,97.23
2022-11-24T07:36:50.215Z,97.51
2022-11-24T07:39:18.105Z,97.63
2022-11-24T07:41:46.226Z,97.85
2022-11-24T07:44:14.267Z,97.90
2022-11-24T07:46:42.185Z,97.76
2022-11-24T07:49:10.025Z,97.79
2022-11-24T07:51:37.986Z,97.82
2022-11-24T07:54:05.881Z,97.79
2022-11-24T07:56:33.769Z,98.04
2022-11-24T07:59:01.581Z,98.05
2022-11-24T08:01:29.511Z,98.06
2022-11-24T08:03:57.570Z,97.93
2022-11-24T08:06:35.896Z,97.88
2022-11-24T08:09:06.371Z,97.85
2022-11-24T08:11:34.648Z,97.84
2022-11-24T08:14:02.493Z,98.07
2022-11-24T08:16:30.329Z,97.91
2022-11-24T08:18:58.368Z,97.92
2022-11-24T08:21:26.771Z,97.86
2022-11-24T08:23:56.341Z,97.91
2022-11-24T08:26:25.169Z,97.70
2022-11-24T08:28:58.521Z,97.70
2022-11-24T08:31:33.450Z,97.81
2022-11-24T08:34:04.474Z,97.97
2022-11-24T08:36:32.804Z,98.02
2022-11-24T08:39:01.720Z,98.06
2022-11-24T08:41:30.733Z,97.90
2022-11-24T08:43:59.076Z,97.90
2022-11-24T08:46:27.165Z,97.81
2022-11-24T08:48:55.893Z,97.75
2022-11-24T08:51:26.748Z,97.48
2022-11-24T08:53:59.587Z,97.41
2022-11-24T08:56:29.982Z,97.29
2022-11-24T08:58:58.237Z,97.28
2022-11-24T09:01:27.356Z,97.39
2022-11-24T09:03:55.555Z,97.54
2022-11-24T09:06:27.300Z,97.42
2022-11-24T09:08:55.968Z,97.61
2022-11-24T09:11:25.442Z,97.43
2022-11-24T09:13:54.143Z,97.36
2022-11-24T09:16:27.890Z,97.22
2022-11-24T09:18:58.567Z,97.23
2022-11-24T09:21:26.805Z,97.05
2022-11-24T09:23:55.603Z,97.08
2022-11-24T09:26:29.003Z,97.05
2022-11-24T09:28:58.424Z,97.01
2022-11-24T09:31:29.140Z,96.94
2022-11-24T09:33:57.915Z,96.96
2022-11-24T09:36:26.084Z,96.73
2022-11-24T09:38:54.265Z,96.55
2022-11-24T09:41:50.707Z,96.12
2022-11-24T09:44:40.134Z,96.22
2022-11-24T09:47:27.889Z,96.24
2022-11-24T09:50:04.150Z,96.06
2022-11-24T09:52:46.475Z,96.09
2022-11-24T09:55:31.557Z,96.00
2022-11-24T09:58:25.893Z,96.13
2022-11-24T10:00:55.664Z,96.25
2022-11-24T10:03:41.957Z,96.43
2022-11-24T10:06:24.710Z,96.29
2022-11-24T10:09:22.897Z,96.21
2022-11-24T10:12:08.866Z,96.05
2022-11-24T10:14:39.490Z,96.00
2022-11-24T10:17:22.308Z,95.82
2022-11-24T10:20:11.764Z,95.48
2022-11-24T10:22:53.881Z,95.39
2022-11-24T10:25:29.185Z,95.31
2022-11-24T10:28:02.041Z,95.05
2022-11-24T10:30:30.611Z,94.82
2022-11-24T10:33:18.238Z,94.70
2022-11-24T10:36:15.105Z,94.58
2022-11-24T10:39:05.669Z,94.54
2022-11-24T10:41:46.815Z,94.45
2022-11-24T10:44:16.156Z,94.22
2022-11-24T10:46:44.600Z,94.04
2022-11-24T10:49:28.254Z,93.59
2022-11-24T10:52:02.203Z,93.31
2022-11-24T10:54:30.097Z,93.14
2022-11-24T10:56:57.914Z,92.98
2022-11-24T10:59:33.809Z,92.99
2022-11-24T11:02:02.767Z,92.69
2022-11-24T11:04:35.540Z,92.93
2022-11-24T11:07:13.478Z,92.88
2022-11-24T11:09:41.381Z,92.86
2022-11-24T11:15:30.977Z,92.92
2022-11-24T11:18:00.995Z,92.93
2022-11-24T11:20:32.321Z,92.70
2022-11-24T11:23:13.404Z,92.48
2022-11-24T11:25:41.374Z,92.10
2022-11-24T11:28:26.112Z,91.89
2022-11-24T11:31:21.777Z,91.57
2022-11-24T11:34:07.372Z,91.58
2022-11-24T11:36:43.474Z,91.57
2022-11-24T11:39:20.197Z,91.47
2022-11-24T11:41:50.258Z,91.29
2022-11-24T11:44:44.085Z,91.26
2022-11-24T11:47:20.761Z,91.13
2022-11-24T11:49:49.626Z,90.87
2022-11-24T11:52:41.871Z,90.85
2022-11-24T11:55:27.633Z,90.64
2022-11-24T11:58:08.836Z,90.45
2022-11-24T12:00:45.410Z,89.59
2022-11-24T12:03:22.068Z,89.72
2022-11-24T12:06:17.599Z,89.89
2022-11-24T12:09:19.924Z,89.77
2022-11-24T12:11:48.865Z,89.53
2022-11-24T12:14:45.014Z,89.52
2022-11-24T12:17:30.557Z,89.36
2022-11-24T12:20:17.631Z,89.21
2022-11-24T12:23:15.330Z,89.08
2022-11-24T12:25:58.224Z,89.10
2022-11-24T12:28:51.126Z,88.97
2022-11-24T12:31:35.955Z,88.88
2022-11-24T12:34:24.562Z,88.63
2022-11-24T12:37:24.053Z,88.91
2022-11-24T12:40:11.594Z,89.25
2022-11-24T12:43:10.697Z,88.80
2022-11-24T12:45:53.796Z,88.95
2022-11-24T12:48:56.604Z,88.58
2022-11-24T12:51:37.302Z,88.52
2022-11-24T12:54:12.795Z,88.65
2022-11-24T12:57:05.025Z,88.38
2022-11-24T12:59:49.455Z,88.44
2022-11-24T13:02:39.270Z,88.65
2022-11-24T13:05:23.237Z,88.04
2022-11-24T13:08:03.292Z,88.05
2022-11-24T13:13:50.776Z,87.90
2022-11-24T13:16:35.582Z,88.36
2022-11-24T13:19:14.940Z,88.39
2022-11-24T13:21:42.939Z,88.11
2022-11-24T13:24:20.382Z,88.33
2022-11-24T13:26:54.342Z,88.46
2022-11-24T13:29:28.213Z,88.13
2022-11-24T13:32:02.519Z,88.20
2022-11-24T13:34:45.661Z,88.76
2022-11-24T13:37:42.885Z,88.38
2022-11-24T13:40:14.326Z,88.29
2022-11-24T13:42:57.923Z,88.45
2022-11-24T13:45:38.747Z,88.32
2022-11-24T13:48:22.817Z,88.38
2022-11-24T13:50:50.993Z,88.45
2022-11-24T13:53:41.259Z,88.41
2022-11-24T13:56:17.653Z,88.80
2022-11-24T13:58:45.620Z,89.02
2022-11-24T14:01:31.415Z,89.08
2022-11-24T14:04:33.224Z,88.98
2022-11-24T14:07:09.451Z,88.80
2022-11-24T14:09:55.948Z,89.00
2022-11-24T14:12:25.731Z,89.03
2022-11-24T14:15:12.684Z,89.14
2022-11-24T14:17:40.513Z,89.14
2022-11-24T14:20:28.320Z,89.27
2022-11-24T14:22:56.319Z,89.45
2022-11-24T14:25:30.959Z,89.80
2022-11-24T14:28:00.468Z,89.98
2022-11-24T14:30:28.742Z,89.89
2022-11-24T14:33:03.868Z,90.05
2022-11-24T14:35:36.004Z,90.04
2022-11-24T14:38:06.113Z,90.13
2022-11-24T14:40:51.950Z,90.10
2022-11-24T14:43:25.635Z,90.43
2022-11-24T14:46:12.286Z,90.90
2022-11-24T14:48:48.264Z,90.82
2022-11-24T14:51:21.866Z,90.62
2022-11-24T14:53:56.424Z,90.91
2022-11-24T14:56:34.444Z,91.21
2022-11-24T14:59:02.620Z,91.42
2022-11-24T15:01:34.604Z,91.40
2022-11-24T15:04:17.897Z,91.60
2022-11-24T15:07:19.273Z,91.92
2022-11-24T15:09:58.697Z,91.69
2022-11-24T15:12:39.226Z,91.79
2022-11-24T15:15:20.043Z,91.96
2022-11-24T15:17:54.645Z,92.13
2022-11-24T15:20:37.806Z,92.36
2022-11-24T15:23:33.352Z,92.34
2022-11-24T15:26:04.214Z,92.61
2022-11-24T15:28:32.594Z,92.66
2022-11-24T15:31:05.787Z,92.74
2022-11-24T15:33:34.064Z,92.85
2022-11-24T15:36:02.361Z,93.08
2022-11-24T15:38:30.220Z,93.30
2022-11-24T15:41:00.118Z,93.55
2022-11-24T15:43:31.128Z,93.70
2022-11-24T15:46:00.213Z,93.85
2022-11-24T15:48:28.917Z,94.02
2022-11-24T15:50:58.052Z,94.32
2022-11-24T15:53:49.482Z,94.28
2022-11-24T15:56:25.827Z,94.47
2022-11-24T15:58:54.181Z,94.40
2022-11-24T16:01:24.347Z,94.72
2022-11-24T16:03:52.269Z,94.87
2022-11-24T16:06:25.057Z,95.20
2022-11-24T16:08:54.421Z,95.33
2022-11-24T16:11:22.890Z,95.54
2022-11-24T16:13:53.943Z,95.36
2022-11-24T16:16:24.787Z,95.10
2022-11-24T16:18:53.215Z,95.26
2022-11-24T16:21:21.133Z,95.48
2022-11-24T16:23:49.042Z,95.57
2022-11-24T16:26:16.993Z,95.52
2022-11-24T16:28:45.810Z,95.71
2022-11-24T16:31:16.105Z,95.65
2022-11-24T16:33:46.588Z,95.65
2022-11-24T16:36:15.052Z,95.77
2022-11-24T16:38:42.888Z,95.89
2022-11-24T16:41:10.977Z,95.84
2022-11-24T16:43:39.046Z,95.93
2022-11-24T16:46:17.028Z,96.13
2022-11-24T16:48:46.742Z,96.12
2022-11-24T16:51:15.030Z,96.16
2022-11-24T16:53:43.622Z,96.08
2022-11-24T16:56:11.683Z,95.98
2022-11-24T16:58:41.187Z,95.94
2022-11-24T17:01:12.636Z,96.00
2022-11-24T17:03:41.197Z,95.95
2022-11-24T17:06:15.830Z,96.09
2022-11-24T17:08:45.599Z,96.13
2022-11-24T17:11:19.814Z,96.09
2022-11-24T17:13:49.299Z,96.18
2022-11-24T17:16:22.578Z,96.37
2022-11-24T17:18:50.744Z,96.35
2022-11-24T17:21:24.480Z,96.21
2022-11-24T17:23:59.716Z,96.24
2022-11-24T17:26:28.755Z,96.28
2022-11-24T17:28:56.965Z,95.99
2022-11-24T17:31:27.557Z,95.80
2022-11-24T17:33:57.649Z,95.80
2022-11-24T17:36:26.104Z,95.82
2022-11-24T17:38:54.439Z,95.84
2022-11-24T17:41:23.315Z,95.77
2022-11-24T17:43:53.015Z,95.98
2022-11-24T17:46:21.279Z,96.05
2022-11-24T17:48:49.895Z,95.98
2022-11-24T17:51:19.843Z,95.98
2022-11-24T17:53:49.833Z,96.06
2022-11-24T17:56:23.630Z,96.05
2022-11-24T17:58:56.134Z,95.96
2022-11-24T18:01:24.702Z,95.90
2022-11-24T18:03:54.104Z,95.64
2022-11-24T18:06:25.325Z,95.69
2022-11-24T18:08:55.690Z,95.92
2022-11-24T18:11:31.996Z,95.83
2022-11-24T18:14:02.797Z,95.58
2022-11-24T18:16:34.882Z,95.38
2022-11-24T18:19:09.861Z,95.13
2022-11-24T18:21:40.367Z,94.98
2022-11-24T18:24:09.872Z,95.03
2022-11-24T18:26:39.035Z,94.81
2022-11-24T18:29:09.216Z,94.50
2022-11-24T18:31:37.802Z,94.51
2022-11-24T18:34:07.132Z,94.49
2022-11-24T18:36:36.039Z,94.59
2022-11-24T18:39:06.350Z,94.70
2022-11-24T18:41:34.758Z,94.75
2022-11-24T18:44:03.436Z,94.69
2022-11-24T18:46:31.895Z,94.72
2022-11-24T18:49:02.174Z,94.85
2022-11-24T18:51:31.007Z,94.91
2022-11-24T18:53:59.352Z,94.80
2022-11-24T18:56:27.419Z,94.57
2022-11-24T18:58:56.444Z,94.65
2022-11-24T19:01:27.061Z,94.45
2022-11-24T19:04:00.650Z,94.72
2022-11-24T19:06:32.818Z,94.67
2022-11-24T19:09:06.872Z,94.54
2022-11-24T19:11:38.608Z,94.43
2022-11-24T19:14:08.793Z,94.23
2022-11-24T19:16:36.978Z,94.09
2022-11-24T19:19:05.397Z,94.07
2022-11-24T19:21:38.992Z,94.05
2022-11-24T19:24:11.878Z,94.19
2022-11-24T19:26:40.621Z,94.14
2022-11-24T19:29:09.562Z,94.27
2022-11-24T19:31:39.624Z,94.32
2022-11-24T19:34:08.497Z,94.36
2022-11-24T19:36:37.260Z,94.39
2022-11-24T19:39:05.618Z,94.46
2022-11-24T19:41:34.210Z,94.15
2022-11-24T19:44:02.193Z,94.07
2022-11-24T19:46:30.790Z,93.91
2022-11-24T19:49:02.252Z,93.77
2022-11-24T19:51:33.541Z,93.78
2022-11-24T19:54:02.368Z,93.78
2022-11-24T19:56:34.655Z,93.80
2022-11-24T19:59:04.433Z,93.81
2022-11-24T20:01:34.760Z,93.83
2022-11-24T20:04:05.394Z,93.83
2022-11-24T20:06:36.772Z,93.70
2022-11-24T20:09:07.714Z,93.67
2022-11-24T20:11:35.754Z,93.59
2022-11-24T20:14:04.397Z,93.39
2022-11-24T20:16:34.412Z,93.49
2022-11-24T20:19:05.840Z,93.42
2022-11-24T20:21:35.818Z,93.12
2022-11-24T20:24:12.834Z,93.06
2022-11-24T20:26:44.473Z,92.97
2022-11-24T20:29:14.538Z,92.87
2022-11-24T20:31:47.688Z,92.93
2022-11-24T20:34:15.921Z,93.16
2022-11-24T20:36:46.008Z,93.16
2022-11-24T20:39:22.346Z,92.82
2022-11-24T20:41:54.678Z,92.66
2022-11-24T20:44:23.321Z,92.61
2022-11-24T20:46:51.554Z,92.54
2022-11-24T20:49:21.787Z,92.68
2022-11-24T20:51:54.302Z,92.57
2022-11-24T20:54:22.528Z,92.80
2022-11-24T20:56:50.622Z,92.82
2022-11-24T20:59:22.141Z,92.70
2022-11-24T21:01:51.652Z,92.68
2022-11-24T21:04:22.534Z,92.56
2022-11-24T21:06:50.789Z,92.54
2022-11-24T21:09:19.602Z,92.38
2022-11-24T21:11:47.682Z,92.49
2022-11-24T21:14:15.928Z,92.36
2022-11-24T21:16:44.027Z,92.32
2022-11-24T21:19:14.499Z,92.12
2022-11-24T21:21:43.166Z,92.01
2022-11-24T21:24:14.161Z,91.96
2022-11-24T21:26:43.146Z,92.03
2022-11-24T21:29:17.176Z,91.81
2022-11-24T21:31:45.252Z,91.59
2022-11-24T21:34:16.327Z,91.71
2022-11-24T21:36:45.163Z,92.13
2022-11-24T21:39:17.646Z,92.07
2022-11-24T21:41:45.706Z,92.34
2022-11-24T21:44:14.178Z,92.37
2022-11-24T21:46:51.111Z,92.50
2022-11-24T21:49:23.637Z,92.50
2022-11-24T21:51:55.552Z,92.21
2022-11-24T21:54:24.060Z,91.99
2022-11-24T21:56:52.821Z,91.67
2022-11-24T21:59:22.132Z,91.55
2022-11-24T22:01:50.145Z,91.48
2022-11-24T22:04:18.135Z,91.63
2022-11-24T22:06:46.208Z,91.25
2022-11-24T22:09:18.013Z,91.26
2022-11-24T22:11:49.140Z,91.16
2022-11-24T22:14:17.262Z,90.73
2022-11-24T22:16:46.012Z,90.81
2022-11-24T22:19:14.383Z,90.90
2022-11-24T22:21:42.657Z,91.05
2022-11-24T22:24:11.274Z,90.75
2022-11-24T22:26:40.313Z,90.58
2022-11-24T22:29:09.018Z,90.60
2022-11-24T22:31:37.616Z,90.27
2022-11-24T22:34:06.353Z,90.33
2022-11-24T22:36:37.346Z,90.25
2022-11-24T22:39:09.014Z,90.53
2022-11-24T22:41:37.582Z,90.70
2022-11-24T22:44:06.586Z,90.61
2022-11-24T22:46:34.937Z,90.64
2022-11-24T22:49:03.623Z,90.65
2022-11-24T22:51:34.370Z,90.71
2022-11-24T22:54:04.982Z,90.76
2022-11-24T22:56:34.548Z,90.82
2022-11-24T22:59:04.728Z,90.97
2022-11-24T23:01:34.621Z,90.78
2022-11-24T23:04:04.080Z,90.64
2022-11-24T23:06:33.770Z,90.67
2022-11-24T23:09:03.937Z,90.92
2022-11-24T23:11:39.233Z,91.06
2022-11-24T23:14:13.997Z,90.91
2022-11-24T23:16:42.828Z,90.91
2022-11-24T23:19:11.509Z,90.84
2022-11-24T23:21:40.292Z,90.85
2022-11-24T23:24:10.286Z,90.86
2022-11-24T23:26:40.424Z,90.93
2022-11-24T23:29:10.143Z,90.71
2022-11-24T23:31:42.055Z,90.83
2022-11-24T23:34:10.555Z,90.59
2022-11-24T23:36:38.959Z,90.72
2022-11-24T23:39:11.362Z,90.69
2022-11-24T23:41:40.201Z,90.63
2022-11-24T23:44:08.494Z,90.69
2022-11-24T23:46:36.999Z,90.68
2022-11-24T23:49:05.150Z,90.72
2022-11-24T23:51:33.717Z,90.82
2022-11-24T23:54:01.924Z,91.03
2022-11-24T23:56:32.907Z,91.03
2022-11-24T23:59:02.885Z,90.87
